Flight Track Log - Related Links

Times and Time Zones

All times are in EDT time to prevent confusion due to time zone crossing. See the SWA2166 flight status page for this flight to view local times or setup timezone preferences in your user account.

Time Position Orientation Groundspeed Altitude Reporting Facility
EDT Latitude Longitude Course Direction KTS MPH feet Rate Location/Type
Tue 07:14:44 PM 33.5486 -86.7831 232° Southwest 151 174 1,900  Level Atlanta Center
Tue 07:15:02 PM 33.5442 -86.7978 250° West 152 175 2,800 2,582 Climbing Atlanta Center
Tue 07:16:03 PM 33.5178 -86.8619 244° Southwest 233 268 5,300 2,777 Climbing Atlanta Center
Tue 07:17:03 PM 33.4661 -86.9275 227° Southwest 269 310 8,400 2,828 Climbing Atlanta Center
Tue 07:17:30 PM 33.4469 -86.9467 220° Southwest 265 305 9,400 1,241 Climbing Atlanta Center
Tue 07:18:30 PM 33.3950 -87.0169 228° Southwest 290 334 10,200 2,600 Climbing Atlanta Center
Tue 07:20:00 PM 33.1113 -87.4083 232° Southwest  Level FlightAware Approximate
Tue 07:20:30 PM 33.2739 -87.1944 231° Southwest 342 394 17,200  Level Atlanta Center
Tue 07:21:30 PM 33.2108 -87.2864 231° Southwest 362 417 20,800 3,300 Climbing Atlanta Center
Tue 07:22:30 PM 33.1517 -87.3958 237° Southwest 373 429 23,800 2,738 Climbing Atlanta Center
Tue 07:24:56 PM 32.9958 -87.6797 237° Southwest 414 476 30,200 2,476 Climbing Memphis Center
Tue 07:25:56 PM 32.9294 -87.8031 237° Southwest 425 489 32,300 1,900 Climbing Memphis Center
Tue 07:26:56 PM 32.8775 -87.9083 240° Southwest 431 496 34,000 1,150 Climbing Memphis Center
Tue 07:27:56 PM 32.8192 -88.0311 241° Southwest 426 490 34,600 1,450 Climbing Memphis Center
Tue 07:28:56 PM 32.7778 -88.1608 249° West 426 490 36,900 2,150 Climbing Memphis Center
Tue 07:29:56 PM 32.7361 -88.2828 248° West 421 484 38,900 1,550 Climbing Memphis Center
Tue 07:30:56 PM 32.7003 -88.4044 251° West 410 472 40,000 550 Climbing Memphis Center
Tue 07:31:56 PM 32.6544 -88.5364 248° West 410 472 40,000  Level Memphis Center
Tue 07:32:56 PM 32.6142 -88.6556 248° West 405 466 40,000  Level Memphis Center
Tue 07:33:56 PM 32.5742 -88.7794 249° West 400 460 40,000  Level Memphis Center
Tue 07:34:56 PM 32.5339 -88.8986 248° West 395 455 40,000  Level Memphis Center
Tue 07:35:56 PM 32.4936 -89.0200 249° West 395 455 40,000  Level Memphis Center
Tue 07:36:56 PM 32.4508 -89.1436 248° West 395 455 40,000  Level Memphis Center
Tue 07:37:56 PM 32.4125 -89.2647 249° West 395 455 40,000  Level Memphis Center
Tue 07:38:56 PM 32.3717 -89.3858 248° West 395 455 40,000  Level Memphis Center
Tue 07:39:56 PM 32.3286 -89.5067 247° West 400 460 40,000  Level Memphis Center
Tue 07:40:56 PM 32.2897 -89.6275 249° West 400 460 40,000  Level Memphis Center
Tue 07:41:56 PM 32.2467 -89.7506 248° West 400 460 40,000  Level Memphis Center
Tue 07:42:56 PM 32.2053 -89.8711 248° West 400 460 40,000  Level Memphis Center
Tue 07:43:56 PM 32.1619 -89.9942 247° West 400 460 40,000  Level Memphis Center
Tue 07:44:56 PM 32.1206 -90.1169 248° West 400 460 40,000  Level Memphis Center
Tue 07:45:56 PM 32.0769 -90.2397 247° West 400 460 40,000  Level Memphis Center
Tue 07:46:56 PM 32.0331 -90.3622 247° West 400 460 40,000  Level Memphis Center
Tue 07:47:56 PM 31.9914 -90.4847 248° West 400 460 40,000  Level Memphis Center
Tue 07:50:02 PM 31.9072 -90.7278 248° West 402 463 40,000  Level Houston Center
Tue 07:51:04 PM 31.8675 -90.8431 248° West 400 460 40,000  Level Houston Center
Tue 07:52:06 PM 31.8169 -90.9881 248° West 399 459 40,000  Level Houston Center
Tue 07:53:08 PM 31.7722 -91.1089 247° West 402 463 40,000  Level Houston Center
Tue 07:54:10 PM 31.7281 -91.2311 247° West 405 466 40,000  Level Houston Center
Tue 07:55:12 PM 31.6847 -91.3544 248° West 406 467 40,000  Level Houston Center
Tue 07:56:13 PM 31.6417 -91.4739 247° West 397 457 40,000  Level Houston Center
Tue 07:57:15 PM 31.5992 -91.5897 247° West 387 445 40,000  Level Houston Center
Tue 07:58:17 PM 31.5492 -91.7286 247° West 385 443 40,000  Level Houston Center
Tue 07:59:19 PM 31.5078 -91.8428 247° West 382 440 40,000  Level Houston Center
Tue 08:00:21 PM 31.4656 -91.9569 247° West 381 438 40,000  Level Houston Center
Tue 08:01:22 PM 31.4219 -92.0731 246° West 382 440 40,000  Level Houston Center
Tue 08:02:24 PM 31.3803 -92.1875 247° West 382 440 40,000  Level Houston Center
Tue 08:03:26 PM 31.3383 -92.3028 247° West 385 443 40,000  Level Houston Center
Tue 08:04:27 PM 31.2944 -92.4172 246° West 386 444 40,000  Level Houston Center
Tue 08:05:29 PM 31.2522 -92.5303 246° West 382 440 40,000  Level Houston Center
Tue 08:06:31 PM 31.2028 -92.6683 247° West 385 443 40,000  Level Houston Center
Tue 08:07:32 PM 31.1606 -92.7811 246° West 379 436 40,000  Level Houston Center
Tue 08:08:34 PM 31.1175 -92.8939 246° West 380 437 40,000  Level Houston Center
Tue 08:09:36 PM 31.0764 -93.0086 247° West 384 442 40,000  Level Houston Center
Tue 08:10:37 PM 31.0336 -93.1217 246° West 384 442 40,000  Level Houston Center
Tue 08:11:39 PM 30.9917 -93.2347 247° West 382 440 40,000  Level Houston Center
Tue 08:12:41 PM 30.9486 -93.3464 246° West 381 438 40,000  Level Houston Center
Tue 08:13:42 PM 30.8978 -93.4803 246° West 379 436 40,000  Level Houston Center
Tue 08:14:44 PM 30.8544 -93.5925 246° West 381 438 40,000 -878 Level Houston Center
Tue 08:15:45 PM 30.8117 -93.7031 246° West 379 436 38,200 -1,951 Descending Houston Center
Tue 08:16:47 PM 30.7700 -93.8142 246° West 379 436 36,000 -2,419 Descending Houston Center
Tue 08:17:49 PM 30.7247 -93.9294 245° Southwest 394 453 33,200 -1,463 Descending Houston Center
Tue 08:18:50 PM 30.6794 -94.0478 246° West 402 463 33,000 -98 Descending Houston Center
Tue 08:19:52 PM 30.6408 -94.1869 252° West 390 449 33,000 -1,210 Level Houston Center
Tue 08:20:54 PM 30.6411 -94.3094 270° West 383 441 30,500 -1,854 Descending Houston Center
Tue 08:21:55 PM 30.6428 -94.4411 271° West 410 472 29,200 -3,512 Descending Houston Center
Tue 08:22:57 PM 30.5656 -94.5533 231° Southwest 422 486 23,300 -4,694 Descending Houston Center
Tue 08:23:59 PM 30.4778 -94.6400 220° Southwest 414 476 19,500 -3,588 Descending Houston Center
Tue 08:24:34 PM 30.4278 -94.6908 221° Southwest 390 449 17,500 -2,852 Descending Houston Center
Tue 08:25:00 PM 30.4056 -94.7128 220° Southwest 392 451 16,600 -3,370 Descending Houston Center
Tue 08:25:47 PM 30.3317 -94.7853 220° Southwest 366 421 13,400 -3,194 Descending Houston Center
Tue 08:26:02 PM 30.3281 -94.7894 225° Southwest 371 427 13,300 -358 Descending Houston Center
Tue 08:26:54 PM 30.2592 -94.8842 230° Southwest 361 415 13,000 -889 Descending Houston Center
Tue 08:27:50 PM 30.2042 -94.9683 233° Southwest 360 414 11,700 -1,099 Descending Houston Center
Tue 08:28:05 PM 30.1931 -94.9872 236° Southwest 354 407 11,700 -623 Level Houston Center
Tue 08:29:07 PM 30.1419 -95.0606 231° Southwest 298 343 10,900 -785 Descending Houston Center
Tue 08:29:52 PM 30.0914 -95.0889 206° Southwest 229 264 10,300 -581 Descending Houston Center
Tue 08:30:09 PM 30.0828 -95.0933 204° Southwest 237 273 10,300 -327 Level Houston Center
Tue 08:30:47 PM 30.0392 -95.1122 201° Southwest 217 250 10,000 -197 Descending Houston Center
Tue 08:31:10 PM 30.0258 -95.1181 201° Southwest 219 252 10,100  Climbing Houston Center
Tue 08:31:42 PM 29.9886 -95.1353 202° Southwest 220 253 10,000  Descending Houston Center
Tue 08:32:12 PM 29.9692 -95.1428 198° South 218 251 10,100 -448 Climbing Houston Center
Tue 08:32:49 PM 29.9239 -95.1625 201° Southwest 222 255 9,500 -677 Descending Houston Center
Tue 08:33:14 PM 29.9103 -95.1678 199° South 224 258 9,400 -1,091 Descending Houston Center
Tue 08:33:44 PM 29.8717 -95.1858 202° Southwest 218 251 8,500 -1,377 Descending Houston Center
Tue 08:34:15 PM 29.8433 -95.1969 199° South 216 249 8,000 -1,180 Descending Houston Center
Tue 08:34:45 PM 29.8150 -95.2094 201° Southwest 211 243 7,300 -1,258 Descending Houston Center
Tue 08:35:17 PM 29.7878 -95.2208 200° South 214 246 6,700 -1,180 Descending Houston Center
Tue 08:35:46 PM 29.7564 -95.2336 199° South 213 245 6,100 -677 Descending Houston Center
Tue 08:36:19 PM 29.7331 -95.2444 202° Southwest 212 244 6,000 -98 Descending Houston Center
Tue 08:36:47 PM 29.7025 -95.2667 212° Southwest 215 247 6,000  Level Houston Center
Tue 08:37:20 PM 29.6847 -95.2822 217° Southwest 214 246 6,000 -581 Level Houston Center
Tue 08:37:49 PM 29.6558 -95.3058 215° Southwest 215 247 5,400 -1,065 Descending Houston Center
Tue 08:38:22 PM 29.6364 -95.3222 216° Southwest 217 250 4,900 -1,180 Descending Houston Center
Tue 08:38:50 PM 29.6317 -95.3642 263° West 260 299 4,200 -871 Descending Houston Center
Tue 08:39:24 PM 29.6394 -95.3964 286° West 251 289 4,000 -295 Descending Houston Center
Tue 08:39:51 PM 29.6700 -95.4364 311° West 260 299 3,900 -393 Descending Houston Center
Tue 08:40:25 PM 29.6967 -95.4700 312° West 257 296 3,600 -689 Descending Houston Center
Tue 08:40:52 PM 29.7175 -95.4981 311° West 243 280 3,200 -677 Descending Houston Center
Tue 08:41:27 PM 29.7494 -95.5056 348° North 250 288 2,900 -197 Descending Houston Center
Tue 08:41:53 PM 29.7731 -95.4842 38° Northeast 223 257 3,000 -387 Climbing Houston Center
Tue 08:42:29 PM 29.7978 -95.4611 39° Northeast 229 264 2,500 -984 Descending Houston Center
Tue 08:42:54 PM 29.7856 -95.4394 123° Southeast 165 190 2,000 -590 Descending Houston Center
Tue 08:43:30 PM 29.7667 -95.4231 143° Southeast 191 220 1,900  Descending Houston Center
Tue 08:43:56 PM 29.7514 -95.4075 139° Southeast 145 167 2,000 97 Climbing Houston Center
Tue 08:44:32 PM 29.7389 -95.3914 132° Southeast 160 184 2,000  Level Houston Center
Tue 08:44:51 PM 29.7275 -95.3767 132° Southeast 141 162 2,000 -290 Level Houston Center
Tue 08:45:34 PM 29.7119 -95.3586 135° Southeast 147 169 1,700 -590 Descending Houston Center
Tue 08:45:52 PM 29.6992 -95.3439 135° Southeast 139 160 1,400 -590 Descending Houston Center
Tue 08:46:35 PM 29.6869 -95.3286 133° Southeast 139 160 1,100 -537 Descending Houston Center
Tue 08:46:59 PM 29.6756 -95.3156 135° Southeast 113 130 800 -774 Descending Houston Center
Tue 08:47:37 PM 29.6603 -95.2967 133° Southeast 126 145 300 -420 Descending Houston Center
Tue 08:48:39 PM 29.6383 -95.2711 135° Southeast 123 142 100 -194 Descending Houston Center

Login

Don't have an account? Register now (free) for customized features, flight alerts, and more!